createdAt,value
2023-07-24T00:00:48.950Z,74.26
2023-07-24T00:03:15.640Z,74.35
2023-07-24T00:05:42.191Z,74.38
2023-07-24T00:08:08.721Z,74.57
2023-07-24T00:10:35.221Z,74.46
2023-07-24T00:13:02.429Z,74.65
2023-07-24T00:15:29.003Z,74.71
2023-07-24T00:17:55.598Z,74.62
2023-07-24T00:20:22.166Z,74.73
2023-07-24T00:22:48.712Z,74.94
2023-07-24T00:25:15.123Z,74.96
2023-07-24T00:27:41.575Z,75.15
2023-07-24T00:30:08.659Z,75.14
2023-07-24T00:32:35.250Z,75.34
2023-07-24T00:35:02.343Z,75.61
2023-07-24T00:37:29.683Z,75.60
2023-07-24T00:39:56.171Z,75.57
2023-07-24T00:42:23.969Z,75.48
2023-07-24T00:44:50.434Z,75.35
2023-07-24T00:47:18.254Z,75.48
2023-07-24T00:49:47.550Z,75.51
2023-07-24T00:52:14.588Z,75.16
2023-07-24T00:54:41.297Z,75.20
2023-07-24T00:57:08.217Z,74.99
2023-07-24T00:59:36.888Z,74.82
2023-07-24T01:02:03.783Z,74.90
2023-07-24T01:04:30.360Z,74.72
2023-07-24T01:06:58.128Z,74.89
2023-07-24T01:09:24.658Z,75.00
2023-07-24T01:12:06.900Z,74.74
2023-07-24T01:14:48.334Z,74.87
2023-07-24T01:17:24.742Z,75.27
2023-07-24T01:19:57.026Z,75.58
2023-07-24T01:22:41.204Z,75.08
2023-07-24T01:25:37.821Z,75.27
2023-07-24T01:28:08.817Z,75.60
2023-07-24T01:30:35.676Z,75.64
2023-07-24T01:33:03.386Z,75.52
2023-07-24T01:35:31.548Z,75.48
2023-07-24T01:37:59.508Z,75.90
2023-07-24T01:40:26.065Z,75.77
2023-07-24T01:42:53.067Z,75.73
2023-07-24T01:45:19.652Z,75.96
2023-07-24T01:47:46.213Z,75.85
2023-07-24T01:50:12.779Z,75.98
2023-07-24T01:52:39.525Z,76.56
2023-07-24T01:55:06.404Z,76.40
2023-07-24T01:57:32.845Z,75.99
2023-07-24T01:59:59.285Z,76.41
2023-07-24T02:02:25.865Z,76.44
2023-07-24T02:04:52.304Z,76.56
2023-07-24T02:07:18.724Z,76.39
2023-07-24T02:09:45.911Z,76.45
2023-07-24T02:12:12.550Z,76.16
2023-07-24T02:14:39.138Z,76.24
2023-07-24T02:17:05.632Z,76.46
2023-07-24T02:19:32.137Z,76.35
2023-07-24T02:21:58.636Z,76.42
2023-07-24T02:24:25.498Z,76.41
2023-07-24T02:26:52.081Z,76.27
2023-07-24T02:29:18.584Z,76.63
2023-07-24T02:31:45.068Z,76.52
2023-07-24T02:34:11.559Z,76.44
2023-07-24T02:36:42.402Z,76.25
2023-07-24T02:39:09.451Z,76.30
2023-07-24T02:41:35.962Z,76.23
2023-07-24T02:44:04.442Z,76.10
2023-07-24T02:46:32.183Z,76.14
2023-07-24T02:48:58.960Z,75.97
2023-07-24T02:51:25.601Z,76.36
2023-07-24T02:53:53.324Z,76.31
2023-07-24T02:56:19.976Z,76.17
2023-07-24T02:58:46.447Z,76.13
2023-07-24T03:01:15.055Z,76.01
2023-07-24T03:03:42.594Z,75.88
2023-07-24T03:06:09.607Z,75.98
2023-07-24T03:08:36.089Z,75.80
2023-07-24T03:11:05.856Z,75.88
2023-07-24T03:13:32.414Z,75.99
2023-07-24T03:15:59.278Z,75.89
2023-07-24T03:18:26.537Z,75.77
2023-07-24T03:20:53.732Z,75.95
2023-07-24T03:23:21.248Z,75.67
2023-07-24T03:25:47.883Z,75.86
2023-07-24T03:28:14.375Z,75.89
2023-07-24T03:30:40.824Z,75.66
2023-07-24T03:33:08.416Z,75.76
2023-07-24T03:35:35.033Z,75.58
2023-07-24T03:38:01.559Z,75.45
2023-07-24T03:40:28.459Z,75.29
2023-07-24T03:42:54.949Z,75.11
2023-07-24T03:45:22.386Z,75.32
2023-07-24T03:47:48.887Z,75.17
2023-07-24T03:50:15.918Z,75.19
2023-07-24T03:52:42.395Z,75.23
2023-07-24T03:55:09.405Z,75.03
2023-07-24T03:57:36.040Z,75.12
2023-07-24T04:00:03.937Z,74.90
2023-07-24T04:02:40.875Z,75.10
2023-07-24T04:05:07.856Z,75.19
2023-07-24T04:07:34.397Z,75.05
2023-07-24T04:10:00.923Z,75.26
2023-07-24T04:12:27.437Z,74.98
2023-07-24T04:14:53.968Z,74.66
2023-07-24T04:17:21.805Z,74.82
2023-07-24T04:19:48.412Z,74.78
2023-07-24T04:22:14.887Z,74.69
2023-07-24T04:24:41.348Z,74.69
2023-07-24T04:27:07.793Z,74.74
2023-07-24T04:29:34.282Z,74.99
2023-07-24T04:32:00.860Z,74.89
2023-07-24T04:34:27.357Z,74.79
2023-07-24T04:36:53.809Z,74.82
2023-07-24T04:39:20.338Z,74.67
2023-07-24T04:41:46.881Z,74.74
2023-07-24T04:44:13.339Z,74.77
2023-07-24T04:46:39.931Z,74.83
2023-07-24T04:49:06.492Z,74.88
2023-07-24T04:51:36.160Z,74.99
2023-07-24T04:54:03.161Z,74.95
2023-07-24T04:56:29.916Z,75.12
2023-07-24T04:58:56.700Z,75.09
2023-07-24T05:01:23.238Z,74.98
2023-07-24T05:03:49.801Z,74.95
2023-07-24T05:06:16.246Z,74.95
2023-07-24T05:08:43.723Z,75.22
2023-07-24T05:11:10.251Z,75.17
2023-07-24T05:13:36.660Z,75.10
2023-07-24T05:16:03.133Z,75.19
2023-07-24T05:18:29.727Z,74.83
2023-07-24T05:20:56.225Z,75.02
2023-07-24T05:23:22.718Z,74.95
2023-07-24T05:25:58.040Z,74.81
2023-07-24T05:28:24.504Z,74.72
2023-07-24T05:30:51.044Z,74.71
2023-07-24T05:33:17.892Z,74.94
2023-07-24T05:35:44.425Z,75.27
2023-07-24T05:38:10.977Z,75.20
2023-07-24T05:40:37.397Z,75.19
2023-07-24T05:43:04.971Z,75.39
2023-07-24T05:45:31.467Z,75.08
2023-07-24T05:47:59.071Z,75.23
2023-07-24T05:50:25.512Z,75.09
2023-07-24T05:52:51.948Z,75.10
2023-07-24T05:55:18.533Z,75.03
2023-07-24T05:57:45.843Z,75.12
2023-07-24T06:00:12.505Z,74.75
2023-07-24T06:02:38.943Z,74.87
2023-07-24T06:05:05.860Z,75.18
2023-07-24T06:07:32.396Z,75.29
2023-07-24T06:09:58.801Z,75.85
2023-07-24T06:12:25.341Z,75.89
2023-07-24T06:14:52.113Z,75.86
2023-07-24T06:17:18.518Z,75.92
2023-07-24T06:19:45.115Z,75.61
2023-07-24T06:22:11.594Z,75.42
2023-07-24T06:24:38.964Z,75.62
2023-07-24T06:27:07.588Z,75.48
2023-07-24T06:29:34.673Z,75.30
2023-07-24T06:32:01.398Z,75.39
2023-07-24T06:34:27.893Z,75.31
2023-07-24T06:36:54.364Z,75.32
2023-07-24T06:39:21.476Z,74.99
2023-07-24T06:41:47.945Z,75.06
2023-07-24T06:44:14.679Z,74.86
2023-07-24T06:46:41.144Z,74.78
2023-07-24T06:49:07.703Z,74.90
2023-07-24T06:51:34.188Z,74.96
2023-07-24T06:54:00.661Z,74.78
2023-07-24T06:56:27.164Z,74.58
2023-07-24T06:58:54.431Z,74.69
2023-07-24T07:01:20.918Z,74.58
2023-07-24T07:03:47.551Z,74.78
2023-07-24T07:08:43.602Z,74.95
2023-07-24T07:11:10.240Z,74.63
2023-07-24T07:13:36.764Z,74.52
2023-07-24T07:16:03.380Z,74.55
2023-07-24T07:18:29.863Z,74.68
2023-07-24T07:20:56.674Z,74.60
2023-07-24T07:23:23.506Z,74.43
2023-07-24T07:25:52.299Z,74.30
2023-07-24T07:28:19.990Z,74.14
2023-07-24T07:30:46.779Z,73.92
2023-07-24T07:33:14.630Z,73.90
2023-07-24T07:35:41.098Z,73.63
2023-07-24T07:38:07.618Z,73.44
2023-07-24T07:40:34.234Z,72.97
2023-07-24T07:43:00.682Z,73.09
2023-07-24T07:45:27.147Z,72.94
2023-07-24T07:47:54.612Z,72.68
2023-07-24T07:50:21.333Z,72.58
2023-07-24T07:52:52.058Z,72.73
2023-07-24T07:55:20.156Z,72.62
2023-07-24T07:57:46.601Z,72.37
2023-07-24T08:00:13.478Z,72.04
2023-07-24T08:02:42.671Z,72.04
2023-07-24T08:05:15.143Z,71.85
2023-07-24T08:07:44.593Z,71.55
2023-07-24T08:10:11.115Z,71.35
2023-07-24T08:12:37.607Z,71.33
2023-07-24T08:15:04.529Z,70.97
2023-07-24T08:17:31.244Z,71.04
2023-07-24T08:19:57.889Z,71.13
2023-07-24T08:22:25.038Z,71.04
2023-07-24T08:24:53.401Z,71.24
2023-07-24T08:27:21.669Z,71.13
2023-07-24T08:29:52.344Z,71.15
2023-07-24T08:32:18.820Z,70.75
2023-07-24T08:34:45.339Z,70.62
2023-07-24T08:37:12.794Z,70.47
2023-07-24T08:39:39.839Z,70.21
2023-07-24T08:42:13.361Z,69.87
2023-07-24T08:44:40.740Z,69.49
2023-07-24T08:47:11.165Z,69.51
2023-07-24T08:49:39.377Z,69.30
2023-07-24T08:52:06.738Z,69.39
2023-07-24T08:54:33.808Z,69.39
2023-07-24T08:57:00.994Z,69.59
2023-07-24T08:59:27.957Z,69.77
2023-07-24T09:01:54.590Z,69.86
2023-07-24T09:04:21.057Z,69.34
2023-07-24T09:06:47.947Z,69.37
2023-07-24T09:09:15.823Z,69.29
2023-07-24T09:11:54.846Z,69.01
2023-07-24T09:14:33.346Z,68.68
2023-07-24T09:17:04.562Z,68.95
2023-07-24T09:19:32.153Z,69.01
2023-07-24T09:22:14.037Z,68.78
2023-07-24T09:24:52.143Z,68.42
2023-07-24T09:27:19.340Z,68.47
2023-07-24T09:29:47.411Z,68.28
2023-07-24T09:32:25.724Z,67.37
2023-07-24T09:34:52.931Z,66.26
2023-07-24T09:37:30.387Z,65.75
2023-07-24T09:39:57.024Z,65.34
2023-07-24T09:42:31.922Z,65.38
2023-07-24T09:44:58.470Z,65.38
2023-07-24T09:47:51.037Z,65.37
2023-07-24T09:50:11.847Z,64.80
2023-07-24T09:52:43.068Z,64.45
2023-07-24T09:55:16.447Z,64.44
2023-07-24T09:57:45.056Z,64.36
2023-07-24T10:00:13.347Z,64.36
2023-07-24T10:02:41.021Z,64.72
2023-07-24T10:05:08.237Z,64.66
2023-07-24T10:07:34.920Z,64.59
2023-07-24T10:10:02.914Z,63.53
2023-07-24T10:12:31.584Z,63.39
2023-07-24T10:14:58.582Z,63.75
2023-07-24T10:17:38.850Z,64.09
2023-07-24T10:20:13.212Z,63.59
2023-07-24T10:22:44.498Z,63.65
2023-07-24T10:25:12.865Z,63.27
2023-07-24T10:27:47.452Z,62.46
2023-07-24T10:30:32.254Z,61.19
2023-07-24T10:33:12.620Z,60.86
2023-07-24T10:35:44.705Z,60.53
2023-07-24T10:38:12.398Z,60.96
2023-07-24T10:40:40.989Z,60.71
2023-07-24T10:43:19.107Z,61.14
2023-07-24T10:45:54.212Z,61.03
2023-07-24T10:48:27.420Z,61.04
2023-07-24T10:50:55.162Z,61.10
2023-07-24T10:53:24.813Z,61.51
2023-07-24T10:55:52.603Z,61.53
2023-07-24T10:58:19.294Z,61.52
2023-07-24T11:00:48.384Z,60.70
2023-07-24T11:03:16.172Z,60.54
2023-07-24T11:05:43.827Z,60.87
2023-07-24T11:08:16.589Z,61.32
2023-07-24T11:10:49.289Z,61.43
2023-07-24T11:13:21.666Z,61.64
2023-07-24T11:15:49.762Z,61.81
2023-07-24T11:18:17.253Z,62.19
2023-07-24T11:20:46.935Z,62.50
2023-07-24T11:23:14.079Z,62.88
2023-07-24T11:25:41.816Z,62.86
2023-07-24T11:28:09.660Z,62.89
2023-07-24T11:30:36.332Z,63.00
2023-07-24T11:33:06.632Z,63.27
2023-07-24T11:35:33.922Z,63.21
2023-07-24T11:38:00.551Z,63.30
2023-07-24T11:40:36.050Z,63.35
2023-07-24T11:43:05.910Z,63.33
2023-07-24T11:45:42.001Z,63.71
2023-07-24T11:48:12.687Z,64.20
2023-07-24T11:50:47.524Z,64.76
2023-07-24T11:53:40.351Z,65.12
2023-07-24T11:56:15.396Z,65.45
2023-07-24T11:58:41.904Z,65.72
2023-07-24T12:01:08.357Z,65.77
2023-07-24T12:03:35.935Z,65.84
2023-07-24T12:06:03.222Z,65.83
2023-07-24T12:08:36.773Z,65.83
2023-07-24T12:11:03.774Z,65.20
2023-07-24T12:13:30.327Z,64.32
2023-07-24T12:15:56.990Z,63.59
2023-07-24T12:18:23.494Z,63.57
2023-07-24T12:20:49.972Z,63.32
2023-07-24T12:23:17.294Z,62.72
2023-07-24T12:25:43.936Z,62.26
2023-07-24T12:28:10.492Z,62.58
2023-07-24T12:30:36.891Z,62.71
2023-07-24T12:33:03.626Z,62.58
2023-07-24T12:35:30.232Z,62.50
2023-07-24T12:37:56.739Z,62.24
2023-07-24T12:40:23.560Z,62.30
2023-07-24T12:42:50.298Z,62.15
2023-07-24T12:45:16.732Z,62.40
2023-07-24T12:47:44.195Z,62.11
2023-07-24T12:50:10.728Z,62.45
2023-07-24T12:52:37.281Z,62.84
2023-07-24T12:55:04.701Z,61.53
2023-07-24T12:57:31.174Z,61.65
2023-07-24T12:59:57.637Z,61.89
2023-07-24T13:02:24.198Z,61.33
2023-07-24T13:04:50.978Z,61.28
2023-07-24T13:07:17.644Z,60.85
2023-07-24T13:09:44.152Z,60.96
2023-07-24T13:12:11.427Z,60.81
2023-07-24T13:14:40.281Z,60.85
2023-07-24T13:17:10.096Z,60.94
2023-07-24T13:19:36.648Z,60.73
2023-07-24T13:22:03.180Z,60.14
2023-07-24T13:24:29.723Z,60.44
2023-07-24T13:26:56.192Z,60.89
2023-07-24T13:29:25.308Z,61.29
2023-07-24T13:31:53.353Z,61.00
2023-07-24T13:34:20.868Z,60.88
2023-07-24T13:36:50.782Z,60.62
2023-07-24T13:39:18.126Z,60.69
2023-07-24T13:41:44.642Z,60.75
2023-07-24T13:44:11.293Z,61.05
2023-07-24T13:46:40.420Z,60.75
2023-07-24T13:49:07.508Z,60.45
2023-07-24T13:51:34.008Z,60.33
2023-07-24T13:54:02.518Z,60.26
2023-07-24T13:56:30.746Z,60.66
2023-07-24T13:58:57.302Z,60.46
2023-07-24T14:01:23.806Z,60.78
2023-07-24T14:03:51.453Z,60.73
2023-07-24T14:06:18.359Z,61.47
2023-07-24T14:08:44.792Z,61.75
2023-07-24T14:11:11.311Z,61.43
2023-07-24T14:13:37.789Z,60.90
2023-07-24T14:16:04.519Z,61.12
2023-07-24T14:18:31.044Z,61.49
2023-07-24T14:20:57.689Z,61.75
2023-07-24T14:23:24.241Z,61.63
2023-07-24T14:25:53.214Z,61.79
2023-07-24T14:28:19.701Z,61.38
2023-07-24T14:30:46.183Z,61.44
2023-07-24T14:33:12.680Z,61.18
2023-07-24T14:35:39.205Z,61.53
2023-07-24T14:38:05.799Z,61.53
2023-07-24T14:40:32.305Z,61.41
2023-07-24T14:42:58.723Z,61.50
2023-07-24T14:45:25.956Z,62.40
2023-07-24T14:47:52.545Z,62.77
2023-07-24T14:50:18.971Z,62.63
2023-07-24T14:52:45.454Z,62.91
2023-07-24T14:55:11.979Z,63.15
2023-07-24T14:57:38.466Z,63.25
2023-07-24T15:00:05.562Z,62.55
2023-07-24T15:02:33.865Z,63.27
2023-07-24T15:05:00.416Z,63.16
2023-07-24T15:07:26.932Z,62.87
2023-07-24T15:09:53.400Z,62.69
2023-07-24T15:12:19.956Z,62.63
2023-07-24T15:14:46.559Z,62.69
2023-07-24T15:17:15.588Z,62.66
2023-07-24T15:19:42.087Z,62.66
2023-07-24T15:22:08.581Z,62.50
2023-07-24T15:24:35.074Z,62.82
2023-07-24T15:27:08.834Z,62.99
2023-07-24T15:29:37.167Z,62.97
2023-07-24T15:32:04.066Z,63.00
2023-07-24T15:34:30.711Z,63.67
2023-07-24T15:36:57.230Z,63.58
2023-07-24T15:39:23.865Z,63.68
2023-07-24T15:41:50.501Z,63.80
2023-07-24T15:44:17.034Z,63.44
2023-07-24T15:46:44.787Z,63.69
2023-07-24T15:49:11.452Z,63.34
2023-07-24T15:51:40.900Z,62.77
2023-07-24T15:54:09.221Z,62.88
2023-07-24T15:56:35.718Z,63.11
2023-07-24T15:59:02.199Z,63.66
2023-07-24T16:01:29.331Z,63.78
2023-07-24T16:03:56.331Z,63.14
2023-07-24T16:06:22.856Z,63.06
2023-07-24T16:08:49.354Z,62.31
2023-07-24T16:11:15.847Z,62.06
2023-07-24T16:13:44.041Z,61.80
2023-07-24T16:16:10.863Z,61.69
2023-07-24T16:18:37.583Z,61.10
2023-07-24T16:21:04.127Z,60.59
2023-07-24T16:23:30.625Z,60.59
2023-07-24T16:25:57.103Z,60.61
2023-07-24T16:28:23.873Z,60.74
2023-07-24T16:30:50.417Z,60.86
2023-07-24T16:33:23.745Z,60.91
2023-07-24T16:35:51.216Z,60.95
2023-07-24T16:38:17.745Z,60.90
2023-07-24T16:40:45.518Z,60.75
2023-07-24T16:43:12.107Z,60.23
2023-07-24T16:45:38.576Z,60.28
2023-07-24T16:48:05.367Z,60.39
2023-07-24T16:50:33.075Z,60.09
2023-07-24T16:52:59.705Z,59.76
2023-07-24T16:55:27.888Z,59.52
2023-07-24T16:57:56.349Z,59.22
2023-07-24T17:00:22.870Z,59.41
2023-07-24T17:02:49.423Z,59.44
2023-07-24T17:05:16.187Z,58.89
2023-07-24T17:07:42.682Z,58.53
2023-07-24T17:10:10.402Z,58.42
2023-07-24T17:12:37.024Z,58.46
2023-07-24T17:15:03.800Z,58.57
2023-07-24T17:17:30.388Z,58.85
2023-07-24T17:19:56.833Z,59.64
2023-07-24T17:22:23.336Z,60.45
2023-07-24T17:24:49.791Z,60.58
2023-07-24T17:27:16.447Z,60.36
2023-07-24T17:29:42.991Z,60.40
2023-07-24T17:32:09.429Z,60.17
2023-07-24T17:34:35.916Z,59.97
2023-07-24T17:37:02.377Z,60.07
2023-07-24T17:39:29.509Z,60.51
2023-07-24T17:41:55.994Z,60.39
2023-07-24T17:44:22.447Z,60.41
2023-07-24T17:46:48.972Z,60.48
2023-07-24T17:49:15.500Z,60.21
2023-07-24T17:51:42.049Z,60.52
2023-07-24T17:54:08.502Z,59.93
2023-07-24T17:56:34.991Z,59.62
2023-07-24T17:59:01.477Z,60.03
2023-07-24T18:01:28.082Z,60.08
2023-07-24T18:03:54.635Z,59.97
2023-07-24T18:06:21.291Z,60.00
2023-07-24T18:08:47.806Z,58.93
2023-07-24T18:11:14.318Z,58.69
2023-07-24T18:13:40.810Z,58.82
2023-07-24T18:16:07.306Z,58.15
2023-07-24T18:18:33.880Z,58.08
2023-07-24T18:21:08.354Z,57.76
2023-07-24T18:23:36.068Z,57.66
2023-07-24T18:26:02.806Z,56.79
2023-07-24T18:28:29.390Z,57.12
2023-07-24T18:30:55.829Z,56.96
2023-07-24T18:33:22.332Z,57.00
2023-07-24T18:35:49.555Z,57.10
2023-07-24T18:38:16.732Z,57.06
2023-07-24T18:40:43.188Z,57.10
2023-07-24T18:43:09.704Z,57.02
2023-07-24T18:45:36.156Z,56.98
2023-07-24T18:48:03.058Z,57.10
2023-07-24T18:50:29.908Z,57.07
2023-07-24T18:52:56.572Z,56.95
2023-07-24T18:55:23.158Z,57.39
2023-07-24T18:57:49.762Z,57.46
2023-07-24T19:00:18.073Z,57.42
2023-07-24T19:02:45.144Z,57.63
2023-07-24T19:05:11.878Z,57.42
2023-07-24T19:07:38.399Z,57.86
2023-07-24T19:10:10.113Z,58.09
2023-07-24T19:12:38.501Z,57.56
2023-07-24T19:15:06.470Z,57.82
2023-07-24T19:17:33.028Z,57.17
2023-07-24T19:19:59.481Z,56.99
2023-07-24T19:22:26.020Z,57.30
2023-07-24T19:24:54.952Z,57.07
2023-07-24T19:27:22.886Z,57.16
2023-07-24T19:29:49.413Z,56.72
2023-07-24T19:32:15.871Z,57.12
2023-07-24T19:34:44.808Z,57.40
2023-07-24T19:37:11.739Z,57.29
2023-07-24T19:39:41.103Z,57.16
2023-07-24T19:42:10.330Z,57.37
2023-07-24T19:44:37.888Z,57.97
2023-07-24T19:47:05.078Z,57.79
2023-07-24T19:49:34.196Z,57.81
2023-07-24T19:52:01.657Z,57.99
2023-07-24T19:54:29.986Z,57.95
2023-07-24T19:56:57.124Z,58.05
2023-07-24T19:59:24.160Z,58.04
2023-07-24T20:01:50.640Z,57.78
2023-07-24T20:04:17.240Z,57.65
2023-07-24T20:06:43.733Z,58.21
2023-07-24T20:09:10.314Z,58.21
2023-07-24T20:11:37.147Z,58.04
2023-07-24T20:14:03.659Z,57.95
2023-07-24T20:16:30.194Z,57.82
2023-07-24T20:18:56.650Z,57.16
2023-07-24T20:21:23.264Z,58.01
2023-07-24T20:23:49.808Z,57.70
2023-07-24T20:26:19.079Z,57.54
2023-07-24T20:28:46.932Z,57.68
2023-07-24T20:31:13.761Z,57.71
2023-07-24T20:33:40.245Z,57.91
2023-07-24T20:36:07.832Z,57.57
2023-07-24T20:38:34.846Z,57.78
2023-07-24T20:41:01.980Z,57.57
2023-07-24T20:43:29.105Z,57.63
2023-07-24T20:45:55.622Z,57.83
2023-07-24T20:48:22.898Z,57.98
2023-07-24T20:50:49.774Z,57.92
2023-07-24T20:53:16.228Z,58.25
2023-07-24T20:55:42.702Z,57.85
2023-07-24T20:58:11.061Z,58.10
2023-07-24T21:00:37.488Z,58.17
2023-07-24T21:03:04.274Z,58.22
2023-07-24T21:05:30.818Z,57.94
2023-07-24T21:07:59.753Z,57.92
2023-07-24T21:10:26.365Z,57.90
2023-07-24T21:12:52.847Z,58.16
2023-07-24T21:15:19.280Z,58.22
2023-07-24T21:17:45.883Z,58.16
2023-07-24T21:20:12.860Z,58.40
2023-07-24T21:22:39.338Z,58.43
2023-07-24T21:25:06.197Z,58.96
2023-07-24T21:27:32.692Z,59.21
2023-07-24T21:29:59.152Z,59.13
2023-07-24T21:32:25.719Z,58.92
2023-07-24T21:34:52.250Z,59.28
2023-07-24T21:37:18.717Z,58.83
2023-07-24T21:39:45.196Z,59.05
2023-07-24T21:42:11.749Z,59.25
2023-07-24T21:44:38.300Z,59.26
2023-07-24T21:47:05.499Z,59.39
2023-07-24T21:49:32.738Z,59.30
2023-07-24T21:52:01.190Z,59.42
2023-07-24T21:54:27.696Z,59.29
2023-07-24T21:56:54.357Z,59.42
2023-07-24T21:59:20.785Z,59.58
2023-07-24T22:01:47.213Z,59.35
2023-07-24T22:04:15.173Z,59.14
2023-07-24T22:06:41.667Z,59.54
2023-07-24T22:09:08.131Z,59.36
2023-07-24T22:11:36.762Z,59.70
2023-07-24T22:14:03.379Z,59.71
2023-07-24T22:16:29.911Z,60.11
2023-07-24T22:18:56.494Z,59.70
2023-07-24T22:21:22.911Z,60.12
2023-07-24T22:23:49.472Z,60.33
2023-07-24T22:26:15.872Z,60.33
2023-07-24T22:28:42.364Z,60.22
2023-07-24T22:31:10.246Z,60.44
2023-07-24T22:33:36.864Z,59.98
2023-07-24T22:36:03.755Z,60.03
2023-07-24T22:38:30.355Z,60.19
2023-07-24T22:40:56.796Z,60.25
2023-07-24T22:43:23.420Z,60.48
2023-07-24T22:45:50.028Z,60.56
2023-07-24T22:48:17.082Z,60.43
2023-07-24T22:50:43.645Z,60.68
2023-07-24T22:53:10.191Z,60.71
2023-07-24T22:55:36.683Z,60.73
2023-07-24T22:58:04.560Z,60.14
2023-07-24T23:00:31.101Z,60.52
2023-07-24T23:02:57.683Z,60.32
2023-07-24T23:05:24.224Z,60.17
2023-07-24T23:07:54.188Z,60.48
2023-07-24T23:10:20.781Z,60.31
2023-07-24T23:12:48.409Z,60.29
2023-07-24T23:15:15.239Z,60.30
2023-07-24T23:17:41.764Z,60.58
2023-07-24T23:20:08.885Z,60.37
2023-07-24T23:22:35.378Z,60.27
2023-07-24T23:25:01.840Z,60.58
2023-07-24T23:27:28.480Z,60.74
2023-07-24T23:29:55.076Z,60.41
2023-07-24T23:32:21.545Z,60.89
2023-07-24T23:34:48.034Z,60.46
2023-07-24T23:37:14.508Z,60.52
2023-07-24T23:39:40.999Z,60.31
2023-07-24T23:42:07.505Z,60.58
2023-07-24T23:44:33.987Z,60.58
2023-07-24T23:47:00.551Z,60.65
2023-07-24T23:49:27.011Z,60.47
2023-07-24T23:51:53.490Z,60.36
2023-07-24T23:54:19.950Z,60.30
2023-07-24T23:56:46.395Z,60.65
2023-07-24T23:59:12.960Z,60.75
